sensor_id;sensor_type;location;lat;lon;timestamp;temperature;humidity
59975;DHT22;62136;-35.664;-63.766;2023-10-19T00:00:56;22.20;42.40
59975;DHT22;62136;-35.664;-63.766;2023-10-19T00:03:24;22.30;42.30
59975;DHT22;62136;-35.664;-63.766;2023-10-19T00:05:52;22.70;41.80
59975;DHT22;62136;-35.664;-63.766;2023-10-19T00:08:19;23.10;41.30
59975;DHT22;62136;-35.664;-63.766;2023-10-19T00:10:49;23.50;40.40
59975;DHT22;62136;-35.664;-63.766;2023-10-19T00:13:42;23.50;40.30
59975;DHT22;62136;-35.664;-63.766;2023-10-19T00:16:10;23.40;40.40
59975;DHT22;62136;-35.664;-63.766;2023-10-19T00:18:44;23.30;40.60
59975;DHT22;62136;-35.664;-63.766;2023-10-19T00:21:11;23.10;40.80
59975;DHT22;62136;-35.664;-63.766;2023-10-19T00:23:56;23.00;41.10
59975;DHT22;62136;-35.664;-63.766;2023-10-19T00:26:25;22.80;41.40
59975;DHT22;62136;-35.664;-63.766;2023-10-19T00:28:53;22.60;41.80
59975;DHT22;62136;-35.664;-63.766;2023-10-19T00:31:26;22.40;41.60
59975;DHT22;62136;-35.664;-63.766;2023-10-19T00:33:59;22.30;42.20
59975;DHT22;62136;-35.664;-63.766;2023-10-19T00:36:27;22.10;42.40
59975;DHT22;62136;-35.664;-63.766;2023-10-19T00:38:57;22.20;42.50
59975;DHT22;62136;-35.664;-63.766;2023-10-19T00:41:27;22.60;42.10
59975;DHT22;62136;-35.664;-63.766;2023-10-19T00:43:56;23.00;41.50
59975;DHT22;62136;-35.664;-63.766;2023-10-19T00:46:33;23.30;40.70
59975;DHT22;62136;-35.664;-63.766;2023-10-19T00:49:11;23.40;40.60
59975;DHT22;62136;-35.664;-63.766;2023-10-19T00:52:01;23.40;40.70
59975;DHT22;62136;-35.664;-63.766;2023-10-19T00:54:34;23.20;40.80
59975;DHT22;62136;-35.664;-63.766;2023-10-19T00:57:04;23.10;41.10
59975;DHT22;62136;-35.664;-63.766;2023-10-19T00:59:42;22.90;41.20
59975;DHT22;62136;-35.664;-63.766;2023-10-19T01:02:19;22.70;41.60
59975;DHT22;62136;-35.664;-63.766;2023-10-19T01:04:53;22.50;41.80
59975;DHT22;62136;-35.664;-63.766;2023-10-19T01:07:27;22.40;42.00
59975;DHT22;62136;-35.664;-63.766;2023-10-19T01:10:00;22.20;42.20
59975;DHT22;62136;-35.664;-63.766;2023-10-19T01:12:30;22.10;42.70
59975;DHT22;62136;-35.664;-63.766;2023-10-19T01:15:11;22.20;42.60
59975;DHT22;62136;-35.664;-63.766;2023-10-19T01:17:56;22.60;42.40
59975;DHT22;62136;-35.664;-63.766;2023-10-19T01:20:28;23.00;41.50
59975;DHT22;62136;-35.664;-63.766;2023-10-19T01:25:46;23.40;40.50
59975;DHT22;62136;-35.664;-63.766;2023-10-19T01:28:28;23.40;40.70
59975;DHT22;62136;-35.664;-63.766;2023-10-19T01:31:12;23.30;40.80
59975;DHT22;62136;-35.664;-63.766;2023-10-19T01:33:58;23.10;41.00
59975;DHT22;62136;-35.664;-63.766;2023-10-19T01:36:27;22.90;41.30
59975;DHT22;62136;-35.664;-63.766;2023-10-19T01:38:56;22.70;41.50
59975;DHT22;62136;-35.664;-63.766;2023-10-19T01:41:27;22.50;41.80
59975;DHT22;62136;-35.664;-63.766;2023-10-19T01:43:57;22.40;42.10
59975;DHT22;62136;-35.664;-63.766;2023-10-19T01:46:30;22.20;42.30
59975;DHT22;62136;-35.664;-63.766;2023-10-19T01:49:01;22.10;42.80
59975;DHT22;62136;-35.664;-63.766;2023-10-19T01:51:30;22.10;42.80
59975;DHT22;62136;-35.664;-63.766;2023-10-19T01:53:59;22.30;42.50
59975;DHT22;62136;-35.664;-63.766;2023-10-19T01:56:30;22.70;42.10
59975;DHT22;62136;-35.664;-63.766;2023-10-19T01:58:57;23.20;41.40
59975;DHT22;62136;-35.664;-63.766;2023-10-19T02:01:25;23.40;40.70
59975;DHT22;62136;-35.664;-63.766;2023-10-19T02:03:53;23.40;40.80
59975;DHT22;62136;-35.664;-63.766;2023-10-19T02:06:21;23.30;40.90
59975;DHT22;62136;-35.664;-63.766;2023-10-19T02:09:10;23.20;41.10
59975;DHT22;62136;-35.664;-63.766;2023-10-19T02:11:45;23.00;41.40
59975;DHT22;62136;-35.664;-63.766;2023-10-19T02:14:13;22.80;41.60
59975;DHT22;62136;-35.664;-63.766;2023-10-19T02:16:47;22.60;41.90
59975;DHT22;62136;-35.664;-63.766;2023-10-19T02:19:17;22.50;42.00
59975;DHT22;62136;-35.664;-63.766;2023-10-19T02:21:51;22.30;42.30
59975;DHT22;62136;-35.664;-63.766;2023-10-19T02:24:19;22.10;42.50
59975;DHT22;62136;-35.664;-63.766;2023-10-19T02:26:48;22.00;42.90
59975;DHT22;62136;-35.664;-63.766;2023-10-19T02:29:17;22.10;42.90
59975;DHT22;62136;-35.664;-63.766;2023-10-19T02:31:45;22.40;42.60
59975;DHT22;62136;-35.664;-63.766;2023-10-19T02:34:14;22.80;42.00
59975;DHT22;62136;-35.664;-63.766;2023-10-19T02:36:42;23.30;41.40
59975;DHT22;62136;-35.664;-63.766;2023-10-19T02:39:12;23.30;41.10
59975;DHT22;62136;-35.664;-63.766;2023-10-19T02:41:42;23.30;41.50
59975;DHT22;62136;-35.664;-63.766;2023-10-19T02:44:19;23.20;41.10
59975;DHT22;62136;-35.664;-63.766;2023-10-19T02:46:52;23.10;41.30
59975;DHT22;62136;-35.664;-63.766;2023-10-19T02:49:25;22.90;41.50
59975;DHT22;62136;-35.664;-63.766;2023-10-19T02:51:53;22.70;41.70
59975;DHT22;62136;-35.664;-63.766;2023-10-19T02:54:22;22.60;42.10
59975;DHT22;62136;-35.664;-63.766;2023-10-19T02:56:54;22.40;42.40
59975;DHT22;62136;-35.664;-63.766;2023-10-19T02:59:25;22.20;42.60
59975;DHT22;62136;-35.664;-63.766;2023-10-19T03:02:01;22.10;42.80
59975;DHT22;62136;-35.664;-63.766;2023-10-19T03:04:38;22.00;43.20
59975;DHT22;62136;-35.664;-63.766;2023-10-19T03:07:12;22.10;43.00
59975;DHT22;62136;-35.664;-63.766;2023-10-19T03:09:39;22.50;42.60
59975;DHT22;62136;-35.664;-63.766;2023-10-19T03:12:15;23.00;41.90
59975;DHT22;62136;-35.664;-63.766;2023-10-19T03:14:43;23.30;41.00
59975;DHT22;62136;-35.664;-63.766;2023-10-19T03:17:13;23.40;41.10
59975;DHT22;62136;-35.664;-63.766;2023-10-19T03:19:40;23.30;41.00
59975;DHT22;62136;-35.664;-63.766;2023-10-19T03:22:08;23.10;41.30
59975;DHT22;62136;-35.664;-63.766;2023-10-19T03:24:36;23.00;41.80
59975;DHT22;62136;-35.664;-63.766;2023-10-19T03:27:12;22.80;41.90
59975;DHT22;62136;-35.664;-63.766;2023-10-19T03:29:42;22.60;42.10
59975;DHT22;62136;-35.664;-63.766;2023-10-19T03:32:20;22.50;42.30
59975;DHT22;62136;-35.664;-63.766;2023-10-19T03:34:55;22.30;42.30
59975;DHT22;62136;-35.664;-63.766;2023-10-19T03:37:23;22.10;42.70
59975;DHT22;62136;-35.664;-63.766;2023-10-19T03:39:52;22.00;43.10
59975;DHT22;62136;-35.664;-63.766;2023-10-19T03:42:22;22.00;43.20
59975;DHT22;62136;-35.664;-63.766;2023-10-19T03:44:54;22.30;43.00
59975;DHT22;62136;-35.664;-63.766;2023-10-19T03:47:21;22.60;42.40
59975;DHT22;62136;-35.664;-63.766;2023-10-19T03:49:52;23.10;41.80
59975;DHT22;62136;-35.664;-63.766;2023-10-19T03:52:20;23.30;41.20
59975;DHT22;62136;-35.664;-63.766;2023-10-19T03:54:48;23.30;41.10
59975;DHT22;62136;-35.664;-63.766;2023-10-19T03:57:16;23.30;41.30
59975;DHT22;62136;-35.664;-63.766;2023-10-19T03:59:49;23.10;41.40
59975;DHT22;62136;-35.664;-63.766;2023-10-19T04:02:17;22.90;41.60
59975;DHT22;62136;-35.664;-63.766;2023-10-19T04:04:47;22.70;42.00
59975;DHT22;62136;-35.664;-63.766;2023-10-19T04:07:15;22.60;42.10
59975;DHT22;62136;-35.664;-63.766;2023-10-19T04:09:55;22.40;42.50
59975;DHT22;62136;-35.664;-63.766;2023-10-19T04:12:43;22.30;42.60
59975;DHT22;62136;-35.664;-63.766;2023-10-19T04:15:11;22.10;42.90
59975;DHT22;62136;-35.664;-63.766;2023-10-19T04:17:45;22.00;43.20
59975;DHT22;62136;-35.664;-63.766;2023-10-19T04:20:15;22.00;43.30
59975;DHT22;62136;-35.664;-63.766;2023-10-19T04:22:46;22.30;42.90
59975;DHT22;62136;-35.664;-63.766;2023-10-19T04:25:18;22.70;42.30
59975;DHT22;62136;-35.664;-63.766;2023-10-19T04:27:46;23.10;41.60
59975;DHT22;62136;-35.664;-63.766;2023-10-19T04:30:16;23.30;41.20
59975;DHT22;62136;-35.664;-63.766;2023-10-19T04:32:44;23.30;41.10
59975;DHT22;62136;-35.664;-63.766;2023-10-19T04:35:12;23.20;41.20
59975;DHT22;62136;-35.664;-63.766;2023-10-19T04:37:52;23.10;41.40
59975;DHT22;62136;-35.664;-63.766;2023-10-19T04:40:23;22.90;41.60
59975;DHT22;62136;-35.664;-63.766;2023-10-19T04:42:54;22.70;41.90
59975;DHT22;62136;-35.664;-63.766;2023-10-19T04:45:21;22.50;42.20
59975;DHT22;62136;-35.664;-63.766;2023-10-19T04:47:52;22.40;42.40
59975;DHT22;62136;-35.664;-63.766;2023-10-19T04:50:19;22.20;42.80
59975;DHT22;62136;-35.664;-63.766;2023-10-19T04:52:46;22.10;42.90
59975;DHT22;62136;-35.664;-63.766;2023-10-19T04:55:16;22.00;43.20
59975;DHT22;62136;-35.664;-63.766;2023-10-19T04:57:43;21.90;43.20
59975;DHT22;62136;-35.664;-63.766;2023-10-19T05:00:11;22.20;43.10
59975;DHT22;62136;-35.664;-63.766;2023-10-19T05:02:39;22.60;42.40
59975;DHT22;62136;-35.664;-63.766;2023-10-19T05:05:06;23.10;41.80
59975;DHT22;62136;-35.664;-63.766;2023-10-19T05:07:34;23.20;41.30
59975;DHT22;62136;-35.664;-63.766;2023-10-19T05:10:01;23.30;41.20
59975;DHT22;62136;-35.664;-63.766;2023-10-19T05:12:29;23.20;41.30
59975;DHT22;62136;-35.664;-63.766;2023-10-19T05:14:56;23.00;41.50
59975;DHT22;62136;-35.664;-63.766;2023-10-19T05:17:23;22.90;41.70
59975;DHT22;62136;-35.664;-63.766;2023-10-19T05:19:50;22.70;42.00
59975;DHT22;62136;-35.664;-63.766;2023-10-19T05:22:18;22.60;42.20
59975;DHT22;62136;-35.664;-63.766;2023-10-19T05:24:45;22.40;42.40
59975;DHT22;62136;-35.664;-63.766;2023-10-19T05:27:14;22.20;42.70
59975;DHT22;62136;-35.664;-63.766;2023-10-19T05:29:41;22.00;42.90
59975;DHT22;62136;-35.664;-63.766;2023-10-19T05:32:08;22.00;43.10
59975;DHT22;62136;-35.664;-63.766;2023-10-19T05:34:35;22.00;43.30
59975;DHT22;62136;-35.664;-63.766;2023-10-19T05:37:03;22.20;43.00
59975;DHT22;62136;-35.664;-63.766;2023-10-19T05:39:32;22.50;42.50
59975;DHT22;62136;-35.664;-63.766;2023-10-19T05:42:00;23.00;41.80
59975;DHT22;62136;-35.664;-63.766;2023-10-19T05:44:31;23.20;41.20
59975;DHT22;62136;-35.664;-63.766;2023-10-19T05:46:58;23.30;41.20
59975;DHT22;62136;-35.664;-63.766;2023-10-19T05:49:25;23.10;41.30
59975;DHT22;62136;-35.664;-63.766;2023-10-19T05:51:52;23.00;41.50
59975;DHT22;62136;-35.664;-63.766;2023-10-19T05:54:19;22.90;41.70
59975;DHT22;62136;-35.664;-63.766;2023-10-19T05:56:50;22.70;41.90
59975;DHT22;62136;-35.664;-63.766;2023-10-19T05:59:18;22.50;42.20
59975;DHT22;62136;-35.664;-63.766;2023-10-19T06:01:45;22.40;42.50
59975;DHT22;62136;-35.664;-63.766;2023-10-19T06:04:15;22.20;42.70
59975;DHT22;62136;-35.664;-63.766;2023-10-19T06:06:42;22.00;43.00
59975;DHT22;62136;-35.664;-63.766;2023-10-19T06:09:09;21.90;43.00
59975;DHT22;62136;-35.664;-63.766;2023-10-19T06:11:36;21.90;43.30
59975;DHT22;62136;-35.664;-63.766;2023-10-19T06:14:09;22.10;43.20
59975;DHT22;62136;-35.664;-63.766;2023-10-19T06:16:36;22.50;42.60
59975;DHT22;62136;-35.664;-63.766;2023-10-19T06:19:04;22.90;42.00
59975;DHT22;62136;-35.664;-63.766;2023-10-19T06:21:31;23.20;41.30
59975;DHT22;62136;-35.664;-63.766;2023-10-19T06:23:59;23.20;41.20
59975;DHT22;62136;-35.664;-63.766;2023-10-19T06:26:26;23.20;41.20
59975;DHT22;62136;-35.664;-63.766;2023-10-19T06:28:53;23.10;41.40
59975;DHT22;62136;-35.664;-63.766;2023-10-19T06:31:26;22.90;41.50
59975;DHT22;62136;-35.664;-63.766;2023-10-19T06:33:54;22.70;41.80
59975;DHT22;62136;-35.664;-63.766;2023-10-19T06:36:23;22.60;42.00
59975;DHT22;62136;-35.664;-63.766;2023-10-19T06:38:50;22.40;42.30
59975;DHT22;62136;-35.664;-63.766;2023-10-19T06:41:17;22.20;42.60
59975;DHT22;62136;-35.664;-63.766;2023-10-19T06:43:44;22.10;42.70
59975;DHT22;62136;-35.664;-63.766;2023-10-19T06:46:12;22.00;43.10
59975;DHT22;62136;-35.664;-63.766;2023-10-19T06:48:41;21.90;43.30
59975;DHT22;62136;-35.664;-63.766;2023-10-19T06:51:08;22.00;43.10
59975;DHT22;62136;-35.664;-63.766;2023-10-19T06:53:35;22.40;42.80
59975;DHT22;62136;-35.664;-63.766;2023-10-19T06:56:03;22.80;42.00
59975;DHT22;62136;-35.664;-63.766;2023-10-19T06:58:30;23.20;41.30
59975;DHT22;62136;-35.664;-63.766;2023-10-19T07:00:57;23.30;41.20
59975;DHT22;62136;-35.664;-63.766;2023-10-19T07:03:31;23.20;41.10
59975;DHT22;62136;-35.664;-63.766;2023-10-19T07:05:58;23.10;41.40
59975;DHT22;62136;-35.664;-63.766;2023-10-19T07:08:26;22.90;41.60
59975;DHT22;62136;-35.664;-63.766;2023-10-19T07:10:53;22.80;41.70
59975;DHT22;62136;-35.664;-63.766;2023-10-19T07:13:20;22.60;42.00
59975;DHT22;62136;-35.664;-63.766;2023-10-19T07:15:48;22.50;42.30
59975;DHT22;62136;-35.664;-63.766;2023-10-19T07:18:15;22.20;42.50
59975;DHT22;62136;-35.664;-63.766;2023-10-19T07:20:43;22.10;42.80
59975;DHT22;62136;-35.664;-63.766;2023-10-19T07:23:14;22.00;43.00
59975;DHT22;62136;-35.664;-63.766;2023-10-19T07:25:53;21.90;43.40
59975;DHT22;62136;-35.664;-63.766;2023-10-19T07:28:26;22.00;43.30
59975;DHT22;62136;-35.664;-63.766;2023-10-19T07:30:54;22.40;42.90
59975;DHT22;62136;-35.664;-63.766;2023-10-19T07:33:22;22.80;42.10
59975;DHT22;62136;-35.664;-63.766;2023-10-19T07:35:50;23.20;41.40
59975;DHT22;62136;-35.664;-63.766;2023-10-19T07:38:26;23.30;41.10
59975;DHT22;62136;-35.664;-63.766;2023-10-19T07:40:55;23.30;41.20
59975;DHT22;62136;-35.664;-63.766;2023-10-19T07:43:22;23.10;41.30
59975;DHT22;62136;-35.664;-63.766;2023-10-19T07:45:51;23.00;41.50
59975;DHT22;62136;-35.664;-63.766;2023-10-19T07:48:18;22.80;41.80
59975;DHT22;62136;-35.664;-63.766;2023-10-19T07:50:45;22.60;42.00
59975;DHT22;62136;-35.664;-63.766;2023-10-19T07:53:13;22.50;42.30
59975;DHT22;62136;-35.664;-63.766;2023-10-19T07:55:40;22.30;42.40
59975;DHT22;62136;-35.664;-63.766;2023-10-19T07:58:08;22.10;42.80
59975;DHT22;62136;-35.664;-63.766;2023-10-19T08:00:36;22.00;43.00
59975;DHT22;62136;-35.664;-63.766;2023-10-19T08:03:04;21.90;43.20
59975;DHT22;62136;-35.664;-63.766;2023-10-19T08:05:32;21.90;43.40
59975;DHT22;62136;-35.664;-63.766;2023-10-19T08:08:00;22.30;43.10
59975;DHT22;62136;-35.664;-63.766;2023-10-19T08:10:27;22.60;42.50
59975;DHT22;62136;-35.664;-63.766;2023-10-19T08:12:54;23.00;42.00
59975;DHT22;62136;-35.664;-63.766;2023-10-19T08:15:21;23.20;41.40
59975;DHT22;62136;-35.664;-63.766;2023-10-19T08:17:50;23.20;41.40
59975;DHT22;62136;-35.664;-63.766;2023-10-19T08:20:20;23.10;41.40
59975;DHT22;62136;-35.664;-63.766;2023-10-19T08:22:51;23.00;41.60
59975;DHT22;62136;-35.664;-63.766;2023-10-19T08:25:19;22.80;41.80
59975;DHT22;62136;-35.664;-63.766;2023-10-19T08:27:47;22.70;42.10
59975;DHT22;62136;-35.664;-63.766;2023-10-19T08:30:21;22.50;42.40
59975;DHT22;62136;-35.664;-63.766;2023-10-19T08:32:49;22.30;42.60
59975;DHT22;62136;-35.664;-63.766;2023-10-19T08:35:17;22.20;42.90
59975;DHT22;62136;-35.664;-63.766;2023-10-19T08:37:54;22.00;43.60
59975;DHT22;62136;-35.664;-63.766;2023-10-19T08:40:27;21.90;43.30
59975;DHT22;62136;-35.664;-63.766;2023-10-19T08:42:54;21.90;43.60
59975;DHT22;62136;-35.664;-63.766;2023-10-19T08:45:22;22.20;43.10
59975;DHT22;62136;-35.664;-63.766;2023-10-19T08:50:27;23.00;41.90
59975;DHT22;62136;-35.664;-63.766;2023-10-19T08:52:57;23.20;41.40
59975;DHT22;62136;-35.664;-63.766;2023-10-19T08:55:24;23.20;41.50
59975;DHT22;62136;-35.664;-63.766;2023-10-19T08:57:52;23.10;41.50
59975;DHT22;62136;-35.664;-63.766;2023-10-19T09:00:20;23.00;41.70
59975;DHT22;62136;-35.664;-63.766;2023-10-19T09:02:54;22.80;42.00
59975;DHT22;62136;-35.664;-63.766;2023-10-19T09:05:26;22.70;42.30
59975;DHT22;62136;-35.664;-63.766;2023-10-19T09:07:54;22.50;42.50
59975;DHT22;62136;-35.664;-63.766;2023-10-19T09:10:25;22.30;42.80
59975;DHT22;62136;-35.664;-63.766;2023-10-19T09:15:31;22.00;43.20
59975;DHT22;62136;-35.664;-63.766;2023-10-19T09:18:22;21.90;43.60
59975;DHT22;62136;-35.664;-63.766;2023-10-19T09:20:51;21.90;43.80
59975;DHT22;62136;-35.664;-63.766;2023-10-19T09:23:28;22.20;43.50
59975;DHT22;62136;-35.664;-63.766;2023-10-19T09:25:57;22.70;42.70
59975;DHT22;62136;-35.664;-63.766;2023-10-19T09:28:25;23.10;41.90
59975;DHT22;62136;-35.664;-63.766;2023-10-19T09:30:52;23.20;41.50
59975;DHT22;62136;-35.664;-63.766;2023-10-19T09:33:23;23.10;41.50
59975;DHT22;62136;-35.664;-63.766;2023-10-19T09:38:16;23.00;41.90
59975;DHT22;62136;-35.664;-63.766;2023-10-19T09:40:54;22.80;41.80
59975;DHT22;62136;-35.664;-63.766;2023-10-19T09:43:33;22.60;42.40
59975;DHT22;62136;-35.664;-63.766;2023-10-19T09:46:04;22.40;42.70
59975;DHT22;62136;-35.664;-63.766;2023-10-19T09:48:45;22.20;43.00
59975;DHT22;62136;-35.664;-63.766;2023-10-19T09:51:15;22.10;43.60
59975;DHT22;62136;-35.664;-63.766;2023-10-19T09:54:01;22.00;43.30
59975;DHT22;62136;-35.664;-63.766;2023-10-19T09:56:38;21.80;43.90
59975;DHT22;62136;-35.664;-63.766;2023-10-19T09:59:38;21.90;43.80
59975;DHT22;62136;-35.664;-63.766;2023-10-19T10:02:16;22.20;43.30
59975;DHT22;62136;-35.664;-63.766;2023-10-19T10:04:48;22.40;43.10
59975;DHT22;62136;-35.664;-63.766;2023-10-19T10:07:16;22.30;43.10
59975;DHT22;62136;-35.664;-63.766;2023-10-19T10:09:44;22.30;43.20
59975;DHT22;62136;-35.664;-63.766;2023-10-19T10:12:17;22.20;43.20
59975;DHT22;62136;-35.664;-63.766;2023-10-19T10:17:29;21.90;43.70
59975;DHT22;62136;-35.664;-63.766;2023-10-19T10:20:41;21.80;43.90
59975;DHT22;62136;-35.664;-63.766;2023-10-19T10:22:44;21.70;44.10
59975;DHT22;62136;-35.664;-63.766;2023-10-19T10:25:28;21.60;44.30
59975;DHT22;62136;-35.664;-63.766;2023-10-19T10:27:56;21.50;44.50
59975;DHT22;62136;-35.664;-63.766;2023-10-19T10:30:23;21.40;44.60
59975;DHT22;62136;-35.664;-63.766;2023-10-19T10:32:53;21.30;44.80
59975;DHT22;62136;-35.664;-63.766;2023-10-19T10:38:11;21.20;45.20
59975;DHT22;62136;-35.664;-63.766;2023-10-19T10:40:50;21.10;45.40
59975;DHT22;62136;-35.664;-63.766;2023-10-19T10:43:19;21.10;45.60
59975;DHT22;62136;-35.664;-63.766;2023-10-19T10:45:48;21.00;45.80
59975;DHT22;62136;-35.664;-63.766;2023-10-19T10:48:16;21.00;46.10
59975;DHT22;62136;-35.664;-63.766;2023-10-19T10:50:44;21.00;46.30
59975;DHT22;62136;-35.664;-63.766;2023-10-19T10:53:13;20.90;46.30
59975;DHT22;62136;-35.664;-63.766;2023-10-19T10:55:44;20.80;46.40
59975;DHT22;62136;-35.664;-63.766;2023-10-19T10:58:16;20.80;46.90
59975;DHT22;62136;-35.664;-63.766;2023-10-19T11:00:44;20.80;47.30
59975;DHT22;62136;-35.664;-63.766;2023-10-19T11:03:13;20.70;47.60
59975;DHT22;62136;-35.664;-63.766;2023-10-19T11:05:41;20.80;47.90
59975;DHT22;62136;-35.664;-63.766;2023-10-19T11:08:18;20.70;48.30
59975;DHT22;62136;-35.664;-63.766;2023-10-19T11:10:48;20.70;48.60
59975;DHT22;62136;-35.664;-63.766;2023-10-19T11:13:17;20.70;49.10
59975;DHT22;62136;-35.664;-63.766;2023-10-19T11:15:52;20.70;49.80
59975;DHT22;62136;-35.664;-63.766;2023-10-19T11:18:51;20.70;50.30
59975;DHT22;62136;-35.664;-63.766;2023-10-19T11:21:19;20.70;51.20
59975;DHT22;62136;-35.664;-63.766;2023-10-19T11:23:49;20.70;51.30
59975;DHT22;62136;-35.664;-63.766;2023-10-19T11:26:23;20.70;51.90
59975;DHT22;62136;-35.664;-63.766;2023-10-19T11:29:03;20.70;53.10
59975;DHT22;62136;-35.664;-63.766;2023-10-19T11:31:30;20.70;53.00
59975;DHT22;62136;-35.664;-63.766;2023-10-19T11:34:07;20.70;54.80
59975;DHT22;62136;-35.664;-63.766;2023-10-19T11:39:01;20.70;55.50
59975;DHT22;62136;-35.664;-63.766;2023-10-19T11:41:30;20.80;55.20
59975;DHT22;62136;-35.664;-63.766;2023-10-19T11:43:57;20.80;56.30
59975;DHT22;62136;-35.664;-63.766;2023-10-19T11:46:25;20.80;56.80
59975;DHT22;62136;-35.664;-63.766;2023-10-19T11:48:53;20.80;57.60
59975;DHT22;62136;-35.664;-63.766;2023-10-19T11:51:21;20.80;58.20
59975;DHT22;62136;-35.664;-63.766;2023-10-19T11:53:49;20.80;59.30
59975;DHT22;62136;-35.664;-63.766;2023-10-19T11:56:17;20.80;59.90
59975;DHT22;62136;-35.664;-63.766;2023-10-19T11:58:44;20.80;60.00
59975;DHT22;62136;-35.664;-63.766;2023-10-19T12:01:13;20.90;60.80
59975;DHT22;62136;-35.664;-63.766;2023-10-19T12:03:43;20.90;61.30
59975;DHT22;62136;-35.664;-63.766;2023-10-19T12:06:12;20.90;62.10
59975;DHT22;62136;-35.664;-63.766;2023-10-19T12:08:45;20.90;63.00
59975;DHT22;62136;-35.664;-63.766;2023-10-19T12:11:12;21.00;63.70
59975;DHT22;62136;-35.664;-63.766;2023-10-19T12:13:43;21.00;64.50
59975;DHT22;62136;-35.664;-63.766;2023-10-19T12:16:11;21.00;64.90
59975;DHT22;62136;-35.664;-63.766;2023-10-19T12:18:46;21.00;65.30
59975;DHT22;62136;-35.664;-63.766;2023-10-19T12:21:14;21.00;66.40
59975;DHT22;62136;-35.664;-63.766;2023-10-19T12:23:44;21.00;67.20
59975;DHT22;62136;-35.664;-63.766;2023-10-19T12:26:17;21.10;68.30
59975;DHT22;62136;-35.664;-63.766;2023-10-19T12:28:45;21.10;69.40
59975;DHT22;62136;-35.664;-63.766;2023-10-19T12:31:14;21.10;70.40
59975;DHT22;62136;-35.664;-63.766;2023-10-19T12:33:41;21.10;71.40
59975;DHT22;62136;-35.664;-63.766;2023-10-19T12:36:08;21.10;72.50
59975;DHT22;62136;-35.664;-63.766;2023-10-19T12:38:54;21.10;73.50
59975;DHT22;62136;-35.664;-63.766;2023-10-19T12:41:22;21.20;75.80
59975;DHT22;62136;-35.664;-63.766;2023-10-19T12:43:50;21.20;77.70
59975;DHT22;62136;-35.664;-63.766;2023-10-19T12:46:35;21.20;80.40
59975;DHT22;62136;-35.664;-63.766;2023-10-19T12:49:06;21.20;81.60
59975;DHT22;62136;-35.664;-63.766;2023-10-19T12:51:45;21.30;82.90
59975;DHT22;62136;-35.664;-63.766;2023-10-19T12:54:12;21.40;84.00
59975;DHT22;62136;-35.664;-63.766;2023-10-19T12:56:40;21.30;85.60
59975;DHT22;62136;-35.664;-63.766;2023-10-19T12:59:07;21.40;86.10
59975;DHT22;62136;-35.664;-63.766;2023-10-19T13:01:35;21.40;86.60
59975;DHT22;62136;-35.664;-63.766;2023-10-19T13:04:02;21.50;87.70
59975;DHT22;62136;-35.664;-63.766;2023-10-19T13:06:51;21.50;88.40
59975;DHT22;62136;-35.664;-63.766;2023-10-19T13:09:18;21.60;88.30
59975;DHT22;62136;-35.664;-63.766;2023-10-19T13:11:51;21.60;88.00
59975;DHT22;62136;-35.664;-63.766;2023-10-19T13:14:18;21.60;87.20
59975;DHT22;62136;-35.664;-63.766;2023-10-19T13:16:45;21.70;87.10
59975;DHT22;62136;-35.664;-63.766;2023-10-19T13:19:14;21.70;87.50
59975;DHT22;62136;-35.664;-63.766;2023-10-19T13:21:47;21.80;87.20
59975;DHT22;62136;-35.664;-63.766;2023-10-19T13:24:16;21.80;87.80
59975;DHT22;62136;-35.664;-63.766;2023-10-19T13:26:46;21.90;88.00
59975;DHT22;62136;-35.664;-63.766;2023-10-19T13:29:14;22.00;88.10
59975;DHT22;62136;-35.664;-63.766;2023-10-19T13:31:46;22.00;88.00
59975;DHT22;62136;-35.664;-63.766;2023-10-19T13:34:16;22.10;86.90
59975;DHT22;62136;-35.664;-63.766;2023-10-19T13:36:44;22.10;86.60
59975;DHT22;62136;-35.664;-63.766;2023-10-19T13:39:12;22.10;85.60
59975;DHT22;62136;-35.664;-63.766;2023-10-19T13:41:43;22.10;87.30
59975;DHT22;62136;-35.664;-63.766;2023-10-19T13:44:10;22.10;85.60
59975;DHT22;62136;-35.664;-63.766;2023-10-19T13:46:41;22.10;87.40
59975;DHT22;62136;-35.664;-63.766;2023-10-19T13:49:08;22.10;84.90
59975;DHT22;62136;-35.664;-63.766;2023-10-19T13:51:36;22.00;86.00
59975;DHT22;62136;-35.664;-63.766;2023-10-19T13:54:03;22.00;83.40
59975;DHT22;62136;-35.664;-63.766;2023-10-19T13:56:30;21.90;85.60
59975;DHT22;62136;-35.664;-63.766;2023-10-19T13:58:57;21.90;83.20
59975;DHT22;62136;-35.664;-63.766;2023-10-19T14:01:25;22.00;82.80
59975;DHT22;62136;-35.664;-63.766;2023-10-19T14:03:55;22.00;84.00
59975;DHT22;62136;-35.664;-63.766;2023-10-19T14:06:22;21.90;78.00
59975;DHT22;62136;-35.664;-63.766;2023-10-19T14:08:51;21.90;82.80
59975;DHT22;62136;-35.664;-63.766;2023-10-19T14:11:21;22.00;79.30
59975;DHT22;62136;-35.664;-63.766;2023-10-19T14:13:50;22.10;80.10
59975;DHT22;62136;-35.664;-63.766;2023-10-19T14:16:18;22.10;80.00
59975;DHT22;62136;-35.664;-63.766;2023-10-19T14:18:46;22.10;76.50
59975;DHT22;62136;-35.664;-63.766;2023-10-19T14:21:17;22.20;76.40
59975;DHT22;62136;-35.664;-63.766;2023-10-19T14:23:46;22.20;73.10
59975;DHT22;62136;-35.664;-63.766;2023-10-19T14:26:18;22.20;74.60
59975;DHT22;62136;-35.664;-63.766;2023-10-19T14:28:45;22.30;73.70
59975;DHT22;62136;-35.664;-63.766;2023-10-19T14:31:14;22.30;71.10
59975;DHT22;62136;-35.664;-63.766;2023-10-19T14:33:53;22.40;71.10
59975;DHT22;62136;-35.664;-63.766;2023-10-19T14:36:25;22.40;66.70
59975;DHT22;62136;-35.664;-63.766;2023-10-19T14:38:55;22.40;68.10
59975;DHT22;62136;-35.664;-63.766;2023-10-19T14:41:22;22.40;66.10
59975;DHT22;62136;-35.664;-63.766;2023-10-19T14:43:50;22.50;69.10
59975;DHT22;62136;-35.664;-63.766;2023-10-19T14:46:17;22.40;65.30
59975;DHT22;62136;-35.664;-63.766;2023-10-19T14:48:44;22.50;69.30
59975;DHT22;62136;-35.664;-63.766;2023-10-19T14:51:11;22.50;65.20
59975;DHT22;62136;-35.664;-63.766;2023-10-19T14:53:39;22.50;65.40
59975;DHT22;62136;-35.664;-63.766;2023-10-19T14:56:06;22.50;68.10
59975;DHT22;62136;-35.664;-63.766;2023-10-19T14:58:34;22.60;64.10
59975;DHT22;62136;-35.664;-63.766;2023-10-19T15:01:01;22.60;64.30
59975;DHT22;62136;-35.664;-63.766;2023-10-19T15:03:28;22.60;62.10
59975;DHT22;62136;-35.664;-63.766;2023-10-19T15:05:55;22.70;62.20
59975;DHT22;62136;-35.664;-63.766;2023-10-19T15:08:25;22.70;63.40
59975;DHT22;62136;-35.664;-63.766;2023-10-19T15:10:55;22.70;62.00
59975;DHT22;62136;-35.664;-63.766;2023-10-19T15:13:23;22.80;61.80
59975;DHT22;62136;-35.664;-63.766;2023-10-19T15:15:51;22.80;61.10
59975;DHT22;62136;-35.664;-63.766;2023-10-19T15:18:18;22.90;59.00
59975;DHT22;62136;-35.664;-63.766;2023-10-19T15:20:45;22.90;66.00
59975;DHT22;62136;-35.664;-63.766;2023-10-19T15:23:12;23.00;65.60
59975;DHT22;62136;-35.664;-63.766;2023-10-19T15:25:39;23.10;63.30